Terminal Aerodrome Forecast
Issued by NWS Bismarck, ND

Home | Current Version | Previous Version | Graphics & Text | Print | Product List | Glossary On
Versions: 1 2 3 4 5 6 7 8 9 10 11 12 13 14 15 16 17 18
000
FTUS43 KBIS 021300 AAA
TAFBIS
TAF AMD
KBIS 021314Z 0213/0312 12006KT P6SM SCT050
     FM021600 16017G28KT P6SM SKC
     FM030100 17009KT P6SM SCT150
     FM030500 33025G35KT P6SM OVC040=

USA.gov is the U.S. government's official web portal to all federal, state and local government web resources and services.